createdAt,value
2023-04-15T00:00:35.292Z,97140.72
2023-04-15T00:02:38.799Z,97152.06
2023-04-15T00:04:42.243Z,97151.53
2023-04-15T00:06:53.031Z,97146.56
2023-04-15T00:08:56.194Z,97146.56
2023-04-15T00:11:02.902Z,97145.06
2023-04-15T00:13:07.610Z,97142.34
2023-04-15T00:15:12.544Z,97143.38
2023-04-15T00:17:15.686Z,97143.00
2023-04-15T00:19:19.149Z,97149.00
2023-04-15T00:21:22.363Z,97142.38
2023-04-15T00:23:26.037Z,97145.91
2023-04-15T00:25:29.372Z,97141.78
2023-04-15T00:27:32.670Z,97142.63
2023-04-15T00:29:37.274Z,97139.50
2023-04-15T00:31:40.538Z,97142.00
2023-04-15T00:33:43.695Z,97134.41
2023-04-15T00:35:46.865Z,97133.72
2023-04-15T00:37:50.102Z,97133.81
2023-04-15T00:39:53.120Z,97135.72
2023-04-15T00:41:57.426Z,97134.16
2023-04-15T00:44:00.786Z,97141.72
2023-04-15T00:46:06.135Z,97137.34
2023-04-15T00:48:09.489Z,97134.41
2023-04-15T00:50:13.092Z,97142.19
2023-04-15T00:52:16.204Z,97141.16
2023-04-15T00:54:19.432Z,97141.50
2023-04-15T00:56:24.391Z,97145.88
2023-04-15T00:58:29.130Z,97144.63
2023-04-15T01:00:35.943Z,97142.56
2023-04-15T01:02:41.162Z,97137.38
2023-04-15T01:04:44.575Z,97143.00
2023-04-15T01:06:47.657Z,97139.06
2023-04-15T01:08:50.935Z,97132.34
2023-04-15T01:10:54.138Z,97132.44
2023-04-15T01:12:57.203Z,97133.25
2023-04-15T01:15:02.355Z,97128.19
2023-04-15T01:17:05.527Z,97121.25
2023-04-15T01:19:12.170Z,97124.56
2023-04-15T01:21:15.348Z,97120.19
2023-04-15T01:23:18.659Z,97123.09
2023-04-15T01:25:32.124Z,97117.22
2023-04-15T01:27:36.465Z,97123.31
2023-04-15T01:29:40.020Z,97120.84
2023-04-15T01:31:50.920Z,97125.41
2023-04-15T01:34:12.877Z,97125.72
2023-04-15T01:36:34.227Z,97129.34
2023-04-15T01:38:37.701Z,97122.84
2023-04-15T01:40:42.112Z,97115.06
2023-04-15T01:42:46.772Z,97120.56
2023-04-15T01:44:53.711Z,97111.34
2023-04-15T01:46:58.641Z,97115.72
2023-04-15T01:49:06.534Z,97114.66
2023-04-15T01:51:11.469Z,97114.66
2023-04-15T01:53:15.895Z,97116.53
2023-04-15T01:55:20.541Z,97117.66
2023-04-15T01:57:26.459Z,97115.28
2023-04-15T01:59:32.212Z,97109.50
2023-04-15T02:01:36.960Z,97114.88
2023-04-15T02:03:41.411Z,97109.09
2023-04-15T02:05:46.041Z,97108.38
2023-04-15T02:07:50.505Z,97111.88
2023-04-15T02:09:55.013Z,97111.16
2023-04-15T02:11:59.486Z,97112.09
2023-04-15T02:14:05.808Z,97124.22
2023-04-15T02:16:17.733Z,97119.16
2023-04-15T02:18:22.570Z,97111.59
2023-04-15T02:20:26.888Z,97114.06
2023-04-15T02:22:31.334Z,97117.69
2023-04-15T02:24:35.904Z,97121.31
2023-04-15T02:26:40.709Z,97118.72
2023-04-15T02:28:45.071Z,97114.38
2023-04-15T02:30:54.819Z,97118.91
2023-04-15T02:33:01.571Z,97115.72
2023-04-15T02:35:06.860Z,97111.66
2023-04-15T02:37:13.893Z,97114.56
2023-04-15T02:39:18.794Z,97109.28
2023-04-15T02:41:27.185Z,97114.47
2023-04-15T02:43:31.624Z,97116.31
2023-04-15T02:45:36.035Z,97111.16
2023-04-15T02:47:44.499Z,97111.97
2023-04-15T02:49:49.745Z,97105.97
2023-04-15T02:51:54.088Z,97113.44
2023-04-15T02:53:59.614Z,97113.44
2023-04-15T02:56:04.532Z,97119.63
2023-04-15T02:58:08.845Z,97113.13
2023-04-15T03:00:14.495Z,97111.56
2023-04-15T03:02:20.965Z,97106.28
2023-04-15T03:04:26.668Z,97113.94
2023-04-15T03:06:31.063Z,97104.81
2023-04-15T03:08:35.553Z,97111.66
2023-04-15T03:10:39.866Z,97118.56
2023-04-15T03:12:45.209Z,97108.22
2023-04-15T03:14:54.271Z,97118.34
2023-04-15T03:17:04.017Z,97113.28
2023-04-15T03:19:08.430Z,97113.38
2023-04-15T03:21:14.202Z,97109.06
2023-04-15T03:23:18.650Z,97103.97
2023-04-15T03:25:22.973Z,97102.31
2023-04-15T03:27:27.302Z,97104.69
2023-04-15T03:29:34.601Z,97118.69
2023-04-15T03:31:38.902Z,97106.28
2023-04-15T03:33:43.187Z,97116.44
2023-04-15T03:35:47.609Z,97104.19
2023-04-15T03:37:53.300Z,97116.13
2023-04-15T03:39:57.633Z,97108.66
2023-04-15T03:42:03.477Z,97102.78
2023-04-15T03:44:07.731Z,97115.72
2023-04-15T03:46:12.077Z,97119.84
2023-04-15T03:48:18.150Z,97114.84
2023-04-15T03:50:22.993Z,97114.25
2023-04-15T03:52:27.285Z,97106.69
2023-04-15T03:54:32.874Z,97104.41
2023-04-15T03:56:37.126Z,97106.16
2023-04-15T03:58:41.557Z,97102.22
2023-04-15T04:00:45.918Z,97107.38
2023-04-15T04:02:50.756Z,97101.59
2023-04-15T04:04:55.826Z,97105.00
2023-04-15T04:07:00.171Z,97100.13
2023-04-15T04:09:04.565Z,97092.66
2023-04-15T04:11:10.241Z,97097.94
2023-04-15T04:13:14.563Z,97097.22
2023-04-15T04:15:19.009Z,97104.06
2023-04-15T04:17:23.594Z,97105.06
2023-04-15T04:19:27.922Z,97105.81
2023-04-15T04:21:34.164Z,97105.91
2023-04-15T04:23:38.652Z,97109.41
2023-04-15T04:25:43.740Z,97109.69
2023-04-15T04:27:49.422Z,97099.47
2023-04-15T04:29:53.756Z,97101.28
2023-04-15T04:31:58.050Z,97102.97
2023-04-15T04:34:02.307Z,97114.22
2023-04-15T04:36:07.991Z,97112.38
2023-04-15T04:38:12.334Z,97108.22
2023-04-15T04:40:17.155Z,97112.50
2023-04-15T04:42:21.469Z,97117.84
2023-04-15T04:44:27.172Z,97114.31
2023-04-15T04:46:31.625Z,97112.88
2023-04-15T04:48:35.962Z,97123.31
2023-04-15T04:50:40.213Z,97121.56
2023-04-15T04:52:44.550Z,97126.91
2023-04-15T04:54:48.879Z,97124.44
2023-04-15T04:56:53.265Z,97128.59
2023-04-15T04:58:57.706Z,97125.06
2023-04-15T05:01:03.923Z,97126.72
2023-04-15T05:03:08.575Z,97127.53
2023-04-15T05:05:13.474Z,97129.22
2023-04-15T05:07:17.836Z,97131.69
2023-04-15T05:09:22.133Z,97135.84
2023-04-15T05:11:26.683Z,97134.81
2023-04-15T05:13:31.153Z,97141.84
2023-04-15T05:15:37.071Z,97143.53
2023-04-15T05:17:44.723Z,97145.34
2023-04-15T05:19:49.087Z,97154.88
2023-04-15T05:21:53.419Z,97149.69
2023-04-15T05:23:58.219Z,97138.34
2023-04-15T05:26:02.517Z,97136.56
2023-04-15T05:28:07.242Z,97148.59
2023-04-15T05:30:13.822Z,97148.69
2023-04-15T05:32:18.570Z,97141.31
2023-04-15T05:34:24.354Z,97146.69
2023-04-15T05:36:29.136Z,97150.09
2023-04-15T05:38:33.640Z,97147.22
2023-04-15T05:40:38.210Z,97147.03
2023-04-15T05:42:42.500Z,97149.03
2023-04-15T05:44:46.873Z,97149.19
2023-04-15T05:46:51.228Z,97154.38
2023-04-15T05:48:56.575Z,97166.00
2023-04-15T05:51:02.622Z,97168.00
2023-04-15T05:53:07.248Z,97166.69
2023-04-15T05:55:11.885Z,97168.13
2023-04-15T05:57:16.230Z,97179.63
2023-04-15T05:59:20.625Z,97182.91
2023-04-15T06:01:25.380Z,97175.38
2023-04-15T06:03:29.905Z,97182.25
2023-04-15T06:05:36.655Z,97191.56
2023-04-15T06:07:44.239Z,97189.53
2023-04-15T06:09:49.543Z,97193.91
2023-04-15T06:11:54.812Z,97195.84
2023-04-15T06:13:59.153Z,97194.47
2023-04-15T06:16:04.128Z,97195.94
2023-04-15T06:18:08.444Z,97196.91
2023-04-15T06:20:14.320Z,97202.47
2023-04-15T06:22:18.850Z,97200.06
2023-04-15T06:24:24.609Z,97203.84
2023-04-15T06:26:29.238Z,97214.56
2023-04-15T06:28:33.604Z,97219.06
2023-04-15T06:30:38.556Z,97219.72
2023-04-15T06:32:42.873Z,97218.03
2023-04-15T06:34:47.294Z,97220.59
2023-04-15T06:36:51.664Z,97216.97
2023-04-15T06:38:56.608Z,97229.31
2023-04-15T06:41:02.364Z,97225.16
2023-04-15T06:43:06.678Z,97223.22
2023-04-15T06:45:12.120Z,97230.66
2023-04-15T06:47:16.680Z,97225.16
2023-04-15T06:49:20.990Z,97223.69
2023-04-15T06:51:26.743Z,97226.03
2023-04-15T06:53:31.266Z,97222.78
2023-04-15T06:55:35.558Z,97216.16
2023-04-15T06:57:41.517Z,97223.06
2023-04-15T06:59:46.148Z,97216.03
2023-04-15T07:01:50.642Z,97216.16
2023-04-15T07:03:55.109Z,97217.22
2023-04-15T07:05:59.823Z,97225.19
2023-04-15T07:08:04.264Z,97216.66
2023-04-15T07:10:10.097Z,97222.94
2023-04-15T07:12:14.470Z,97221.16
2023-04-15T07:14:20.271Z,97223.00
2023-04-15T07:16:24.718Z,97226.41
2023-04-15T07:18:29.042Z,97227.28
2023-04-15T07:20:33.429Z,97224.00
2023-04-15T07:22:37.822Z,97227.28
2023-04-15T07:24:42.623Z,97231.75
2023-04-15T07:26:47.152Z,97230.53
2023-04-15T07:28:51.484Z,97227.31
2023-04-15T07:30:58.178Z,97229.72
2023-04-15T07:33:02.960Z,97227.13
2023-04-15T07:35:07.818Z,97226.59
2023-04-15T07:37:12.655Z,97223.44
2023-04-15T07:39:17.068Z,97222.56
2023-04-15T07:41:21.782Z,97225.88
2023-04-15T07:43:26.212Z,97220.53
2023-04-15T07:45:30.602Z,97226.88
2023-04-15T07:47:36.382Z,97236.91
2023-04-15T07:49:40.937Z,97240.41
2023-04-15T07:51:45.365Z,97237.91
2023-04-15T07:53:50.779Z,97234.25
2023-04-15T07:55:55.207Z,97224.19
2023-04-15T07:57:59.772Z,97225.81
2023-04-15T08:00:07.591Z,97227.72
2023-04-15T08:02:18.458Z,97221.44
2023-04-15T08:04:24.602Z,97220.72
2023-04-15T08:06:29.072Z,97220.72
2023-04-15T08:08:33.337Z,97225.66
2023-04-15T08:10:38.776Z,97223.66
2023-04-15T08:12:43.649Z,97218.66
2023-04-15T08:14:48.075Z,97222.44
2023-04-15T08:16:52.515Z,97222.03
2023-04-15T08:18:57.740Z,97216.38
2023-04-15T08:21:03.538Z,97217.38
2023-04-15T08:23:07.876Z,97216.84
2023-04-15T08:25:12.220Z,97209.13
2023-04-15T08:27:16.585Z,97215.03
2023-04-15T08:29:21.097Z,97215.56
2023-04-15T08:31:27.426Z,97227.34
2023-04-15T08:33:31.852Z,97220.22
2023-04-15T08:35:36.204Z,97223.44
2023-04-15T08:37:42.725Z,97220.81
2023-04-15T08:39:47.035Z,97219.56
2023-04-15T08:41:53.872Z,97214.31
2023-04-15T08:43:59.830Z,97215.97
2023-04-15T08:46:05.692Z,97213.34
2023-04-15T08:48:11.444Z,97211.16
2023-04-15T08:50:15.973Z,97221.44
2023-04-15T08:52:21.020Z,97218.38
2023-04-15T08:54:27.084Z,97228.06
2023-04-15T08:56:33.809Z,97221.72
2023-04-15T08:58:38.456Z,97234.72
2023-04-15T09:00:43.288Z,97229.47
2023-04-15T09:02:47.838Z,97232.78
2023-04-15T09:04:52.497Z,97224.38
2023-04-15T09:06:57.319Z,97226.41
2023-04-15T09:09:01.939Z,97219.53
2023-04-15T09:11:08.330Z,97222.69
2023-04-15T09:13:13.071Z,97225.19
2023-04-15T09:15:17.711Z,97220.63
2023-04-15T09:17:22.365Z,97226.75
2023-04-15T09:19:27.190Z,97226.31
2023-04-15T09:21:33.869Z,97234.84
2023-04-15T09:23:39.275Z,97239.06
2023-04-15T09:25:43.836Z,97231.69
2023-04-15T09:27:51.082Z,97241.22
2023-04-15T09:29:55.484Z,97239.59
2023-04-15T09:32:11.070Z,97230.97
2023-04-15T09:34:15.337Z,97230.81
2023-04-15T09:36:20.090Z,97235.13
2023-04-15T09:38:24.841Z,97235.81
2023-04-15T09:40:37.168Z,97239.78
2023-04-15T09:42:58.103Z,97234.03
2023-04-15T09:45:10.199Z,97236.16
2023-04-15T09:47:29.347Z,97226.94
2023-04-15T09:49:34.232Z,97241.41
2023-04-15T09:51:38.733Z,97231.56
2023-04-15T09:53:43.035Z,97233.50
2023-04-15T09:55:48.976Z,97231.94
2023-04-15T09:57:53.624Z,97215.97
2023-04-15T09:59:59.557Z,97224.16
2023-04-15T10:02:06.366Z,97214.19
2023-04-15T10:04:11.677Z,97221.59
2023-04-15T10:06:16.402Z,97228.78
2023-04-15T10:08:22.385Z,97225.78
2023-04-15T10:10:27.479Z,97226.31
2023-04-15T10:12:33.513Z,97227.94
2023-04-15T10:14:39.609Z,97232.09
2023-04-15T10:16:49.550Z,97230.72
2023-04-15T10:18:56.906Z,97226.72
2023-04-15T10:21:02.245Z,97234.34
2023-04-15T10:23:09.533Z,97241.66
2023-04-15T10:25:16.824Z,97232.09
2023-04-15T10:27:22.121Z,97245.88
2023-04-15T10:29:27.239Z,97241.53
2023-04-15T10:31:31.877Z,97245.19
2023-04-15T10:33:39.158Z,97248.88
2023-04-15T10:35:44.093Z,97245.03
2023-04-15T10:37:48.382Z,97250.19
2023-04-15T10:39:52.818Z,97254.63
2023-04-15T10:42:09.676Z,97254.75
2023-04-15T10:44:13.933Z,97243.91
2023-04-15T10:46:24.018Z,97248.59
2023-04-15T10:48:28.469Z,97247.03
2023-04-15T10:50:34.765Z,97254.81
2023-04-15T10:52:41.966Z,97252.72
2023-04-15T10:54:46.740Z,97256.44
2023-04-15T10:56:53.141Z,97255.06
2023-04-15T10:58:57.473Z,97255.75
2023-04-15T11:01:04.474Z,97257.84
2023-04-15T11:03:09.783Z,97257.03
2023-04-15T11:05:14.844Z,97247.31
2023-04-15T11:07:39.294Z,97247.34
2023-04-15T11:09:43.587Z,97245.19
2023-04-15T11:12:17.699Z,97247.00
2023-04-15T11:14:22.148Z,97253.84
2023-04-15T11:16:27.207Z,97252.25
2023-04-15T11:18:33.065Z,97251.31
2023-04-15T11:20:37.748Z,97251.66
2023-04-15T11:22:49.542Z,97253.69
2023-04-15T11:24:53.880Z,97260.13
2023-04-15T11:26:59.797Z,97255.47
2023-04-15T11:29:05.303Z,97260.06
2023-04-15T11:31:12.342Z,97255.78
2023-04-15T11:33:16.635Z,97264.72
2023-04-15T11:35:23.775Z,97270.34
2023-04-15T11:37:31.694Z,97273.31
2023-04-15T11:39:38.524Z,97278.72
2023-04-15T11:41:44.073Z,97282.19
2023-04-15T11:43:48.424Z,97275.97
2023-04-15T11:45:54.225Z,97277.63
2023-04-15T11:48:06.881Z,97278.91
2023-04-15T11:50:18.582Z,97270.56
2023-04-15T11:52:21.835Z,97271.63
2023-04-15T11:54:25.138Z,97278.44
2023-04-15T11:56:29.922Z,97281.44
2023-04-15T11:58:32.991Z,97277.69
2023-04-15T12:00:36.618Z,97272.38
2023-04-15T12:02:40.834Z,97270.94
2023-04-15T12:04:44.249Z,97281.44
2023-04-15T12:06:47.449Z,97280.31
2023-04-15T12:08:50.915Z,97286.09
2023-04-15T12:11:00.292Z,97287.97
2023-04-15T12:13:09.136Z,97291.94
2023-04-15T12:15:12.234Z,97292.16
2023-04-15T12:17:15.398Z,97288.13
2023-04-15T12:19:20.284Z,97289.41
2023-04-15T12:21:24.759Z,97283.38
2023-04-15T12:23:28.044Z,97287.50
2023-04-15T12:25:37.645Z,97292.84
2023-04-15T12:27:40.795Z,97292.53
2023-04-15T12:29:45.306Z,97298.69
2023-04-15T12:31:50.700Z,97302.59
2023-04-15T12:33:56.407Z,97309.19
2023-04-15T12:35:59.516Z,97306.56
2023-04-15T12:38:02.646Z,97309.72
2023-04-15T12:40:10.029Z,97311.22
2023-04-15T12:42:13.830Z,97326.97
2023-04-15T12:44:17.326Z,97325.22
2023-04-15T12:46:21.897Z,97325.97
2023-04-15T12:48:25.445Z,97329.00
2023-04-15T12:50:28.507Z,97334.41
2023-04-15T12:52:31.545Z,97337.03
2023-04-15T12:54:36.033Z,97341.47
2023-04-15T12:56:39.222Z,97344.25
2023-04-15T12:58:42.330Z,97345.25
2023-04-15T13:00:45.694Z,97351.53
2023-04-15T13:02:50.534Z,97355.31
2023-04-15T13:04:53.785Z,97357.22
2023-04-15T13:06:56.986Z,97357.06
2023-04-15T13:09:01.896Z,97362.75
2023-04-15T13:11:05.939Z,97361.88
2023-04-15T13:13:09.573Z,97356.41
2023-04-15T13:15:13.176Z,97366.09
2023-04-15T13:17:17.493Z,97359.41
2023-04-15T13:19:21.999Z,97357.50
2023-04-15T13:21:25.605Z,97366.75
2023-04-15T13:23:28.826Z,97374.97
2023-04-15T13:25:32.131Z,97368.34
2023-04-15T13:27:35.371Z,97364.50
2023-04-15T13:29:38.703Z,97371.69
2023-04-15T13:31:41.821Z,97384.97
2023-04-15T13:33:44.970Z,97382.19
2023-04-15T13:35:49.480Z,97384.53
2023-04-15T13:37:52.757Z,97389.78
2023-04-15T13:39:56.614Z,97394.88
2023-04-15T13:41:59.639Z,97386.75
2023-04-15T13:44:03.052Z,97391.56
2023-04-15T13:46:06.753Z,97399.84
2023-04-15T13:48:09.822Z,97391.59
2023-04-15T13:50:13.261Z,97393.38
2023-04-15T13:52:17.671Z,97396.84
2023-04-15T13:54:20.760Z,97399.63
2023-04-15T13:56:24.064Z,97398.13
2023-04-15T13:58:27.144Z,97400.34
2023-04-15T14:00:30.426Z,97395.63
2023-04-15T14:02:33.587Z,97395.38
2023-04-15T14:04:36.837Z,97404.75
2023-04-15T14:06:39.950Z,97391.09
2023-04-15T14:08:44.529Z,97395.50
2023-04-15T14:10:48.477Z,97402.41
2023-04-15T14:12:51.607Z,97396.19
2023-04-15T14:14:54.759Z,97409.16
2023-04-15T14:16:58.822Z,97412.31
2023-04-15T14:19:02.863Z,97418.09
2023-04-15T14:21:07.378Z,97421.84
2023-04-15T14:23:10.513Z,97417.56
2023-04-15T14:25:23.139Z,97426.81
2023-04-15T14:27:33.769Z,97426.09
2023-04-15T14:29:36.799Z,97439.78
2023-04-15T14:31:40.059Z,97431.06
2023-04-15T14:33:44.682Z,97442.38
2023-04-15T14:35:47.794Z,97444.56
2023-04-15T14:37:50.934Z,97439.75
2023-04-15T14:39:53.936Z,97446.75
2023-04-15T14:41:58.586Z,97454.75
2023-04-15T14:44:01.769Z,97448.00
2023-04-15T14:46:05.089Z,97456.28
2023-04-15T14:48:09.894Z,97457.41
2023-04-15T14:50:13.101Z,97454.06
2023-04-15T14:52:16.130Z,97457.22
2023-04-15T14:54:21.164Z,97460.28
2023-04-15T14:56:25.463Z,97467.16
2023-04-15T14:58:30.132Z,97465.94
2023-04-15T15:00:33.199Z,97482.13
2023-04-15T15:02:39.737Z,97477.78
2023-04-15T15:04:43.788Z,97480.78
2023-04-15T15:06:49.132Z,97494.00
2023-04-15T15:08:52.416Z,97493.53
2023-04-15T15:10:55.604Z,97494.81
2023-04-15T15:12:58.662Z,97486.75
2023-04-15T15:15:12.345Z,97501.19
2023-04-15T15:17:19.602Z,97494.31
2023-04-15T15:19:23.635Z,97495.50
2023-04-15T15:21:27.160Z,97495.50
2023-04-15T15:23:30.385Z,97505.59
2023-04-15T15:25:33.440Z,97505.38
2023-04-15T15:27:38.249Z,97508.38
2023-04-15T15:29:41.425Z,97516.94
2023-04-15T15:31:45.943Z,97517.38
2023-04-15T15:33:49.111Z,97528.50
2023-04-15T15:35:52.499Z,97519.53
2023-04-15T15:37:56.020Z,97530.84
2023-04-15T15:39:59.310Z,97533.06
2023-04-15T15:42:02.480Z,97534.28
2023-04-15T15:44:05.700Z,97542.09
2023-04-15T15:46:08.905Z,97542.84
2023-04-15T15:48:13.996Z,97551.63
2023-04-15T15:50:17.197Z,97558.25
2023-04-15T15:52:20.395Z,97554.59
2023-04-15T15:54:23.575Z,97563.00
2023-04-15T15:56:27.032Z,97564.06
2023-04-15T15:58:31.723Z,97572.94
2023-04-15T16:00:34.880Z,97574.84
2023-04-15T16:03:04.390Z,97578.75
2023-04-15T16:05:02.610Z,97578.88
2023-04-15T16:07:05.909Z,97585.28
2023-04-15T16:09:09.002Z,97586.00
2023-04-15T16:11:12.256Z,97587.19
2023-04-15T16:13:15.371Z,97586.47
2023-04-15T16:15:18.500Z,97591.78
2023-04-15T16:17:21.673Z,97593.31
2023-04-15T16:19:24.857Z,97596.16
2023-04-15T16:21:29.390Z,97601.00
2023-04-15T16:23:32.610Z,97606.69
2023-04-15T16:25:36.026Z,97604.94
2023-04-15T16:29:45.602Z,97610.97
2023-04-15T16:31:49.141Z,97609.91
2023-04-15T16:33:52.352Z,97619.75
2023-04-15T16:35:55.485Z,97618.81
2023-04-15T16:38:00.410Z,97621.28
2023-04-15T16:40:03.741Z,97620.44
2023-04-15T16:42:07.416Z,97634.34
2023-04-15T16:44:10.876Z,97635.53
2023-04-15T16:46:13.988Z,97638.28
2023-04-15T16:48:17.142Z,97639.94
2023-04-15T16:50:20.873Z,97644.06
2023-04-15T16:52:24.022Z,97647.41
2023-04-15T16:54:29.747Z,97643.81
2023-04-15T16:56:32.840Z,97650.72
2023-04-15T16:58:35.884Z,97652.34
2023-04-15T17:00:39.228Z,97658.31
2023-04-15T17:02:42.530Z,97654.72
2023-04-15T17:04:45.841Z,97661.63
2023-04-15T17:06:50.196Z,97654.59
2023-04-15T17:08:53.402Z,97662.56
2023-04-15T17:10:58.425Z,97659.50
2023-04-15T17:13:01.520Z,97666.63
2023-04-15T17:15:05.391Z,97664.84
2023-04-15T17:17:10.794Z,97665.81
2023-04-15T17:19:14.054Z,97664.03
2023-04-15T17:21:24.026Z,97670.19
2023-04-15T17:23:32.162Z,97679.94
2023-04-15T17:25:35.356Z,97678.50
2023-04-15T17:27:42.103Z,97690.03
2023-04-15T17:29:51.447Z,97691.22
2023-04-15T17:32:14.585Z,97695.88
2023-04-15T17:34:49.743Z,97697.38
2023-04-15T17:37:13.869Z,97703.88
2023-04-15T17:39:36.972Z,97710.56
2023-04-15T17:42:00.131Z,97701.91
2023-04-15T17:44:25.386Z,97700.81
2023-04-15T17:46:48.455Z,97708.19
2023-04-15T17:49:12.014Z,97708.28
2023-04-15T17:51:35.042Z,97710.41
2023-04-15T17:54:04.279Z,97711.50
2023-04-15T17:56:28.971Z,97713.38
2023-04-15T17:58:53.096Z,97719.28
2023-04-15T18:01:17.464Z,97728.06
2023-04-15T18:03:40.543Z,97736.84
2023-04-15T18:06:03.733Z,97732.69
2023-04-15T18:08:26.784Z,97736.34
2023-04-15T18:10:49.831Z,97745.13
2023-04-15T18:13:12.937Z,97741.56
2023-04-15T18:15:36.041Z,97746.91
2023-04-15T18:18:01.360Z,97743.47
2023-04-15T18:20:04.566Z,97752.25
2023-04-15T18:22:08.244Z,97756.75
2023-04-15T18:24:11.348Z,97765.75
2023-04-15T18:26:14.575Z,97752.81
2023-04-15T18:28:17.629Z,97766.78
2023-04-15T18:30:20.807Z,97772.84
2023-04-15T18:32:24.105Z,97769.41
2023-04-15T18:34:28.751Z,97778.28
2023-04-15T18:36:32.689Z,97787.75
2023-04-15T18:38:35.780Z,97782.66
2023-04-15T18:40:39.000Z,97788.84
2023-04-15T18:42:42.117Z,97786.34
2023-04-15T18:44:45.310Z,97795.00
2023-04-15T18:46:49.676Z,97791.69
2023-04-15T18:48:55.672Z,97796.78
2023-04-15T18:51:00.224Z,97799.38
2023-04-15T18:53:03.421Z,97799.50
2023-04-15T18:55:07.439Z,97802.94
2023-04-15T18:57:10.735Z,97806.25
2023-04-15T18:59:29.118Z,97808.75
2023-04-15T19:01:33.641Z,97816.69
2023-04-15T19:03:36.844Z,97820.97
2023-04-15T19:05:40.190Z,97824.38
2023-04-15T19:07:44.699Z,97826.19
2023-04-15T19:09:47.987Z,97828.78
2023-04-15T19:11:51.184Z,97837.31
2023-04-15T19:13:54.501Z,97833.88
2023-04-15T19:15:57.701Z,97842.53
2023-04-15T19:18:01.040Z,97845.03
2023-04-15T19:20:04.713Z,97837.22
2023-04-15T19:22:08.178Z,97844.22
2023-04-15T19:24:13.128Z,97846.13
2023-04-15T19:26:16.495Z,97840.16
2023-04-15T19:28:19.718Z,97848.81
2023-04-15T19:30:23.117Z,97848.81
2023-04-15T19:32:26.323Z,97848.81
2023-04-15T19:34:29.559Z,97854.88
2023-04-15T19:36:33.376Z,97860.78
2023-04-15T19:38:37.392Z,97858.41
2023-04-15T19:40:42.124Z,97863.50
2023-04-15T19:42:45.377Z,97862.69
2023-04-15T19:44:48.588Z,97865.31
2023-04-15T19:46:53.160Z,97860.09
2023-04-15T19:48:56.482Z,97867.41
2023-04-15T19:51:00.511Z,97865.97
2023-04-15T19:53:03.826Z,97867.63
2023-04-15T19:55:07.239Z,97864.91
2023-04-15T19:57:11.786Z,97854.38
2023-04-15T19:59:14.897Z,97861.97
2023-04-15T20:01:17.960Z,97862.09
2023-04-15T20:03:21.375Z,97865.53
2023-04-15T20:05:24.924Z,97862.91
2023-04-15T20:07:28.409Z,97869.69
2023-04-15T20:09:31.949Z,97866.97
2023-04-15T20:12:45.581Z,97874.69
2023-04-15T20:14:00.010Z,97874.81
2023-04-15T20:16:04.191Z,97877.41
2023-04-15T20:18:07.445Z,97870.41
2023-04-15T20:20:11.048Z,97867.78
2023-04-15T20:22:14.220Z,97860.78
2023-04-15T20:24:17.936Z,97868.63
2023-04-15T20:26:21.650Z,97868.63
2023-04-15T20:28:27.410Z,97872.19
2023-04-15T20:30:31.962Z,97873.84
2023-04-15T20:32:36.396Z,97875.50
2023-04-15T20:34:40.096Z,97881.56
2023-04-15T20:36:43.254Z,97885.84
2023-04-15T20:38:46.479Z,97882.41
2023-04-15T20:40:49.818Z,97886.66
2023-04-15T20:42:53.227Z,97890.00
2023-04-15T20:44:56.520Z,97892.63
2023-04-15T20:47:01.068Z,97888.34
2023-04-15T20:49:04.546Z,97890.94
2023-04-15T20:51:07.888Z,97882.63
2023-04-15T20:53:11.109Z,97889.94
2023-04-15T20:55:14.360Z,97892.53
2023-04-15T20:57:17.536Z,97895.03
2023-04-15T20:59:20.864Z,97892.44
2023-04-15T21:01:24.021Z,97892.44
2023-04-15T21:03:28.596Z,97897.53
2023-04-15T21:05:31.971Z,97898.50
2023-04-15T21:07:35.083Z,97899.44
2023-04-15T21:09:41.462Z,97904.53
2023-04-15T21:12:00.339Z,97899.22
2023-04-15T21:14:07.914Z,97903.50
2023-04-15T21:16:10.990Z,97904.31
2023-04-15T21:18:14.374Z,97909.53
2023-04-15T21:20:19.142Z,97913.06
2023-04-15T21:22:22.420Z,97912.97
2023-04-15T21:24:25.841Z,97919.13
2023-04-15T21:26:29.075Z,97921.63
2023-04-15T21:28:32.148Z,97922.69
2023-04-15T21:30:35.287Z,97921.00
2023-04-15T21:32:38.481Z,97918.50
2023-04-15T21:34:41.583Z,97922.78
2023-04-15T21:36:46.088Z,97923.34
2023-04-15T21:38:49.189Z,97932.09
2023-04-15T21:40:52.280Z,97935.78
2023-04-15T21:42:55.372Z,97931.38
2023-04-15T21:44:58.504Z,97933.06
2023-04-15T21:47:01.993Z,97931.28
2023-04-15T21:49:07.041Z,97941.59
2023-04-15T21:51:10.286Z,97940.66
2023-04-15T21:53:14.722Z,97943.28
2023-04-15T21:55:18.141Z,97945.88
2023-04-15T21:57:21.283Z,97945.88
2023-04-15T21:59:24.454Z,97952.72
2023-04-15T22:01:27.903Z,97949.19
2023-04-15T22:03:34.886Z,97953.47
2023-04-15T22:05:38.232Z,97952.53
2023-04-15T22:07:41.368Z,97959.41
2023-04-15T22:09:46.451Z,97958.47
2023-04-15T22:11:50.109Z,97958.47
2023-04-15T22:13:53.287Z,97958.47
2023-04-15T22:15:56.512Z,97955.88
2023-04-15T22:17:59.670Z,97962.63
2023-04-15T22:20:03.080Z,97963.59
2023-04-15T22:22:06.441Z,97962.63
2023-04-15T22:24:38.366Z,97971.31
2023-04-15T22:26:33.880Z,97973.16
2023-04-15T22:28:37.327Z,97974.13
2023-04-15T22:30:41.139Z,97972.25
2023-04-15T22:32:44.626Z,97973.91
2023-04-15T22:34:47.881Z,97978.16
2023-04-15T22:36:51.657Z,97979.94
2023-04-15T22:38:54.731Z,97985.16
2023-04-15T22:40:58.472Z,97979.94
2023-04-15T22:43:03.043Z,97986.09
2023-04-15T22:45:07.265Z,97987.78
2023-04-15T22:47:10.404Z,98000.81
2023-04-15T22:49:13.507Z,97992.06
2023-04-15T22:51:22.615Z,97988.59
2023-04-15T22:53:26.394Z,97986.00
2023-04-15T22:55:29.414Z,97989.47
2023-04-15T22:57:32.577Z,97993.81
2023-04-15T22:59:37.078Z,97990.28
2023-04-15T23:01:40.324Z,97990.28
2023-04-15T23:03:55.822Z,97986.00
2023-04-15T23:06:02.266Z,97989.47
2023-04-15T23:08:05.400Z,97999.03
2023-04-15T23:10:09.510Z,97989.66
2023-04-15T23:12:15.022Z,97995.72
2023-04-15T23:14:18.108Z,97998.31
2023-04-15T23:16:22.750Z,98000.09
2023-04-15T23:18:26.006Z,98002.72
2023-04-15T23:20:29.138Z,98002.81
2023-04-15T23:22:32.279Z,98006.56
2023-04-15T23:24:35.381Z,98004.78
2023-04-15T23:26:38.605Z,98003.97
2023-04-15T23:28:41.953Z,98010.13
2023-04-15T23:30:45.477Z,98012.94
2023-04-15T23:32:49.969Z,98009.41
2023-04-15T23:34:53.216Z,98014.63
2023-04-15T23:36:56.195Z,98012.81
2023-04-15T23:38:59.264Z,98019.81
2023-04-15T23:41:02.359Z,98011.06
2023-04-15T23:43:05.666Z,98014.50
2023-04-15T23:45:10.336Z,98018.03
2023-04-15T23:47:13.482Z,98017.13
2023-04-15T23:49:20.150Z,98014.50
2023-04-15T23:51:23.784Z,98027.66
2023-04-15T23:53:26.940Z,98022.44
2023-04-15T23:55:30.515Z,98025.03
2023-04-15T23:57:33.553Z,98020.88
2023-04-15T23:59:36.748Z,98022.66
